createdAt,value
2022-09-07T00:00:56.380Z,101119.78
2022-09-07T00:03:25.998Z,101107.28
2022-09-07T00:05:54.070Z,101108.66
2022-09-07T00:08:24.027Z,101106.13
2022-09-07T00:10:57.261Z,101104.00
2022-09-07T00:13:28.980Z,101103.19
2022-09-07T00:15:58.617Z,101083.75
2022-09-07T00:18:26.964Z,101074.22
2022-09-07T00:21:02.389Z,101065.69
2022-09-07T00:23:31.652Z,101062.56
2022-09-07T00:26:03.164Z,101063.94
2022-09-07T00:28:31.883Z,101067.09
2022-09-07T00:31:01.441Z,101066.09
2022-09-07T00:33:29.890Z,101076.53
2022-09-07T00:35:59.395Z,101067.47
2022-09-07T00:38:27.500Z,101068.56
2022-09-07T00:40:55.686Z,101072.19
2022-09-07T00:43:32.643Z,101075.94
2022-09-07T00:46:02.610Z,101076.47
2022-09-07T00:48:35.676Z,101075.78
2022-09-07T00:51:07.859Z,101073.97
2022-09-07T00:53:39.169Z,101075.97
2022-09-07T00:56:07.518Z,101072.25
2022-09-07T00:58:38.021Z,101079.94
2022-09-07T01:01:08.479Z,101074.38
2022-09-07T01:03:41.229Z,101070.97
2022-09-07T01:06:16.623Z,101072.22
2022-09-07T01:08:46.139Z,101077.78
2022-09-07T01:11:14.520Z,101067.63
2022-09-07T01:13:44.991Z,101059.84
2022-09-07T01:16:26.441Z,101058.34
2022-09-07T01:19:05.115Z,101063.53
2022-09-07T01:21:44.862Z,101058.75
2022-09-07T01:24:42.679Z,101061.00
2022-09-07T01:27:52.015Z,101059.31
2022-09-07T01:30:24.146Z,101059.59
2022-09-07T01:33:31.679Z,101059.72
2022-09-07T01:36:11.362Z,101054.81
2022-09-07T01:38:43.028Z,101057.63
2022-09-07T01:41:17.662Z,101061.25
2022-09-07T01:43:53.537Z,101067.13
2022-09-07T01:46:28.065Z,101067.13
2022-09-07T01:49:01.544Z,101052.47
2022-09-07T01:51:34.590Z,101051.06
2022-09-07T01:54:08.990Z,101047.16
2022-09-07T01:56:41.415Z,101047.47
2022-09-07T01:59:15.361Z,101054.16
2022-09-07T02:01:51.164Z,101051.34
2022-09-07T02:04:24.279Z,101047.84
2022-09-07T02:06:59.644Z,101047.56
2022-09-07T02:09:33.353Z,101039.22
2022-09-07T02:12:03.860Z,101039.06
2022-09-07T02:14:35.440Z,101032.38
2022-09-07T02:17:08.561Z,101042.00
2022-09-07T02:19:42.057Z,101040.75
2022-09-07T02:22:14.304Z,101034.31
2022-09-07T02:24:46.431Z,101029.97
2022-09-07T02:27:18.523Z,101041.41
2022-09-07T02:29:46.532Z,101033.06
2022-09-07T02:32:15.841Z,101042.13
2022-09-07T02:34:43.761Z,101040.47
2022-09-07T02:37:13.355Z,101035.84
2022-09-07T02:39:41.423Z,101034.16
2022-09-07T02:42:10.356Z,101039.75
2022-09-07T02:44:42.045Z,101034.16
2022-09-07T02:47:22.687Z,101032.06
2022-09-07T02:50:07.704Z,101035.97
2022-09-07T02:52:45.825Z,101035.53
2022-09-07T02:55:24.002Z,101033.72
2022-09-07T02:58:02.096Z,101028.66
2022-09-07T03:00:35.732Z,101034.41
2022-09-07T03:03:16.743Z,101030.53
2022-09-07T03:05:49.997Z,101028.41
2022-09-07T03:08:21.245Z,101026.31
2022-09-07T03:10:50.363Z,101023.34
2022-09-07T03:13:22.792Z,101029.94
2022-09-07T03:15:55.525Z,101025.59
2022-09-07T03:18:26.797Z,101020.75
2022-09-07T03:20:54.817Z,101017.53
2022-09-07T03:23:22.726Z,101025.50
2022-09-07T03:25:51.078Z,101021.44
2022-09-07T03:28:19.031Z,101030.06
2022-09-07T03:30:47.456Z,101033.03
2022-09-07T03:33:16.795Z,101025.63
2022-09-07T03:35:47.249Z,101029.06
2022-09-07T03:38:15.165Z,101020.28
2022-09-07T03:40:43.009Z,101022.53
2022-09-07T03:43:10.915Z,101020.13
2022-09-07T03:45:38.867Z,101019.72
2022-09-07T03:48:06.903Z,101014.94
2022-09-07T03:50:34.773Z,101018.59
2022-09-07T03:53:03.990Z,101007.28
2022-09-07T03:55:31.852Z,101013.97
2022-09-07T03:57:59.887Z,101007.28
2022-09-07T04:00:27.789Z,101000.06
2022-09-07T04:02:55.776Z,100991.53
2022-09-07T04:05:24.104Z,100986.41
2022-09-07T04:07:52.500Z,100984.25
2022-09-07T04:10:21.770Z,100978.31
2022-09-07T04:12:50.514Z,100985.19
2022-09-07T04:15:18.399Z,100977.25
2022-09-07T04:17:46.388Z,100980.44
2022-09-07T04:20:14.365Z,100971.09
2022-09-07T04:22:43.134Z,100972.66
2022-09-07T04:25:11.004Z,100968.47
2022-09-07T04:27:40.330Z,100967.78
2022-09-07T04:30:09.279Z,100968.31
2022-09-07T04:32:38.743Z,100973.91
2022-09-07T04:35:08.092Z,100972.31
2022-09-07T04:37:36.094Z,100971.22
2022-09-07T04:40:04.784Z,100973.28
2022-09-07T04:42:32.780Z,100972.34
2022-09-07T04:45:01.995Z,100980.41
2022-09-07T04:47:30.657Z,100983.38
2022-09-07T04:49:58.776Z,100975.84
2022-09-07T04:52:26.675Z,100982.13
2022-09-07T04:54:54.578Z,100973.59
2022-09-07T04:57:25.799Z,100986.47
2022-09-07T04:59:53.760Z,100971.09
2022-09-07T05:02:23.174Z,100982.09
2022-09-07T05:04:51.129Z,100974.72
2022-09-07T05:07:19.201Z,100967.91
2022-09-07T05:09:48.221Z,100971.44
2022-09-07T05:12:16.335Z,100975.34
2022-09-07T05:14:44.397Z,100978.16
2022-09-07T05:17:12.373Z,100973.28
2022-09-07T05:19:41.640Z,100973.44
2022-09-07T05:22:09.752Z,100973.28
2022-09-07T05:24:37.887Z,100965.22
2022-09-07T05:27:06.267Z,100956.50
2022-09-07T05:32:21.953Z,100963.56
2022-09-07T05:34:54.203Z,100961.16
2022-09-07T05:37:22.198Z,100964.44
2022-09-07T05:39:55.062Z,100967.72
2022-09-07T05:42:23.206Z,100959.78
2022-09-07T05:44:51.232Z,100953.25
2022-09-07T05:47:19.303Z,100954.22
2022-09-07T05:49:47.416Z,100955.31
2022-09-07T05:52:17.061Z,100946.81
2022-09-07T05:54:44.882Z,100957.56
2022-09-07T05:57:13.301Z,100963.44
2022-09-07T05:59:41.578Z,100955.63
2022-09-07T06:02:14.243Z,100966.63
2022-09-07T06:04:42.881Z,100962.72
2022-09-07T06:07:27.444Z,100959.94
2022-09-07T06:12:49.027Z,100967.63
2022-09-07T06:15:17.703Z,100970.13
2022-09-07T06:17:45.756Z,100964.97
2022-09-07T06:20:13.864Z,100972.78
2022-09-07T06:22:41.851Z,100970.94
2022-09-07T06:25:11.528Z,100980.03
2022-09-07T06:27:39.428Z,100980.56
2022-09-07T06:30:08.463Z,100973.41
2022-09-07T06:32:45.579Z,100962.09
2022-09-07T06:35:14.724Z,100965.63
2022-09-07T06:37:43.423Z,100963.91
2022-09-07T06:40:13.399Z,100966.66
2022-09-07T06:42:41.701Z,100967.78
2022-09-07T06:45:11.817Z,100955.81
2022-09-07T06:47:40.452Z,100954.56
2022-09-07T06:50:09.754Z,100960.94
2022-09-07T06:55:28.658Z,100964.75
2022-09-07T06:57:57.013Z,100963.91
2022-09-07T07:00:25.151Z,100961.41
2022-09-07T07:02:53.239Z,100963.75
2022-09-07T07:05:21.363Z,100955.34
2022-09-07T07:07:49.496Z,100948.31
2022-09-07T07:10:22.185Z,100944.81
2022-09-07T07:12:57.512Z,100941.09
2022-09-07T07:15:28.482Z,100939.69
2022-09-07T07:18:02.667Z,100943.25
2022-09-07T07:20:38.305Z,100947.78
2022-09-07T07:23:06.968Z,100935.34
2022-09-07T07:25:36.061Z,100935.41
2022-09-07T07:30:56.932Z,100935.31
2022-09-07T07:33:25.753Z,100927.97
2022-09-07T07:35:54.137Z,100927.59
2022-09-07T07:44:00.512Z,100938.38
2022-09-07T07:46:32.367Z,100943.44
2022-09-07T07:49:00.765Z,100943.69
2022-09-07T07:51:29.299Z,100930.59
2022-09-07T07:53:57.820Z,100941.53
2022-09-07T07:56:26.778Z,100943.03
2022-09-07T07:58:55.152Z,100932.50
2022-09-07T08:01:24.622Z,100923.69
2022-09-07T08:03:53.079Z,100926.88
2022-09-07T08:06:22.361Z,100924.06
2022-09-07T08:08:50.336Z,100924.47
2022-09-07T08:11:23.084Z,100922.88
2022-09-07T08:13:52.140Z,100926.38
2022-09-07T08:16:20.235Z,100925.44
2022-09-07T08:18:49.706Z,100928.31
2022-09-07T08:21:17.762Z,100926.69
2022-09-07T08:23:45.935Z,100929.34
2022-09-07T08:26:14.111Z,100940.63
2022-09-07T08:28:45.505Z,100940.97
2022-09-07T08:31:15.445Z,100944.13
2022-09-07T08:33:44.021Z,100937.84
2022-09-07T08:36:14.853Z,100931.34
2022-09-07T08:38:43.075Z,100939.84
2022-09-07T08:41:49.433Z,100947.00
2022-09-07T08:44:23.200Z,100940.16
2022-09-07T08:46:56.065Z,100933.50
2022-09-07T08:49:34.487Z,100922.28
2022-09-07T08:52:06.680Z,100918.75
2022-09-07T08:54:34.971Z,100923.25
2022-09-07T08:57:21.231Z,100908.41
2022-09-07T08:59:56.312Z,100902.38
2022-09-07T09:02:27.988Z,100902.63
2022-09-07T09:07:56.937Z,100904.69
2022-09-07T09:10:36.190Z,100906.94
2022-09-07T09:13:15.830Z,100897.41
2022-09-07T09:15:53.413Z,100894.63
2022-09-07T09:18:41.163Z,100893.59
2022-09-07T09:21:14.606Z,100881.69
2022-09-07T09:23:45.686Z,100888.91
2022-09-07T09:26:22.548Z,100893.31
2022-09-07T09:28:53.144Z,100895.78
2022-09-07T09:31:25.984Z,100898.22
2022-09-07T09:34:10.265Z,100897.91
2022-09-07T09:36:43.735Z,100898.44
2022-09-07T09:39:32.059Z,100898.69
2022-09-07T09:42:15.438Z,100890.81
2022-09-07T09:44:45.503Z,100889.81
2022-09-07T09:47:31.227Z,100887.03
2022-09-07T09:50:02.535Z,100884.50
2022-09-07T09:52:43.517Z,100886.22
2022-09-07T09:55:40.642Z,100871.63
2022-09-07T10:01:25.427Z,100875.50
2022-09-07T10:06:27.923Z,100867.13
2022-09-07T10:08:59.048Z,100859.94
2022-09-07T10:14:37.161Z,100858.78
2022-09-07T10:17:20.262Z,100848.81
2022-09-07T10:19:49.617Z,100856.28
2022-09-07T10:22:32.047Z,100844.09
2022-09-07T10:25:01.159Z,100849.13
2022-09-07T10:27:35.230Z,100848.31
2022-09-07T10:30:07.820Z,100843.91
2022-09-07T10:32:55.032Z,100843.72
2022-09-07T10:35:28.028Z,100836.34
2022-09-07T10:38:04.886Z,100836.28
2022-09-07T10:40:36.165Z,100847.53
2022-09-07T10:43:22.401Z,100839.06
2022-09-07T10:49:19.955Z,100841.25
2022-09-07T10:52:02.560Z,100841.50
2022-09-07T10:54:39.673Z,100847.44
2022-09-07T10:57:39.026Z,100848.53
2022-09-07T11:00:13.369Z,100850.38
2022-09-07T11:03:26.399Z,100845.44
2022-09-07T11:06:09.685Z,100840.53
2022-09-07T11:12:02.865Z,100829.81
2022-09-07T11:14:37.843Z,100821.75
2022-09-07T11:17:14.990Z,100820.53
2022-09-07T11:19:47.999Z,100815.72
2022-09-07T11:22:22.945Z,100818.03
2022-09-07T11:27:48.902Z,100831.97
2022-09-07T11:30:21.941Z,100823.31
2022-09-07T11:32:57.410Z,100824.34
2022-09-07T11:35:35.218Z,100822.50
2022-09-07T11:38:14.176Z,100832.00
2022-09-07T11:40:50.633Z,100828.06
2022-09-07T11:43:23.608Z,100841.06
2022-09-07T11:45:55.114Z,100834.50
2022-09-07T11:48:32.034Z,100837.16
2022-09-07T11:51:04.502Z,100823.88
2022-09-07T11:53:36.830Z,100819.94
2022-09-07T11:56:11.950Z,100824.09
2022-09-07T11:58:55.653Z,100820.00
2022-09-07T12:01:35.096Z,100819.78
2022-09-07T12:04:24.827Z,100821.22
2022-09-07T12:07:17.333Z,100825.78
2022-09-07T12:09:59.525Z,100812.06
2022-09-07T12:12:59.153Z,100819.78
2022-09-07T12:15:34.729Z,100817.09
2022-09-07T12:18:17.959Z,100819.53
2022-09-07T12:20:49.191Z,100810.63
2022-09-07T12:23:27.252Z,100807.78
2022-09-07T12:26:34.146Z,100810.53
2022-09-07T12:29:19.381Z,100807.09
2022-09-07T12:31:59.290Z,100809.53
2022-09-07T12:34:52.492Z,100805.00
2022-09-07T12:37:44.669Z,100809.25
2022-09-07T12:40:49.605Z,100797.78
2022-09-07T12:43:37.008Z,100804.53
2022-09-07T12:46:05.353Z,100800.31
2022-09-07T12:48:47.692Z,100799.19
2022-09-07T12:54:26.174Z,100785.75
2022-09-07T12:59:58.999Z,100782.44
2022-09-07T13:02:55.006Z,100783.47
2022-09-07T13:05:38.989Z,100775.41
2022-09-07T13:08:21.772Z,100773.97
2022-09-07T13:10:51.162Z,100773.19
2022-09-07T13:17:15.520Z,100772.56
2022-09-07T13:19:53.314Z,100769.88
2022-09-07T13:22:56.136Z,100769.69
2022-09-07T13:25:48.079Z,100772.78
2022-09-07T13:28:53.008Z,100767.81
2022-09-07T13:31:49.538Z,100768.03
2022-09-07T13:34:39.262Z,100764.31
2022-09-07T13:37:18.556Z,100760.00
2022-09-07T13:39:49.603Z,100755.03
2022-09-07T13:42:19.813Z,100758.94
2022-09-07T13:45:00.389Z,100744.84
2022-09-07T13:47:53.027Z,100748.78
2022-09-07T13:50:37.362Z,100749.38
2022-09-07T13:53:35.181Z,100745.44
2022-09-07T13:56:16.417Z,100748.34
2022-09-07T13:58:48.077Z,100743.31
2022-09-07T14:01:21.517Z,100748.00
2022-09-07T14:03:55.202Z,100748.59
2022-09-07T14:06:32.716Z,100753.88
2022-09-07T14:09:04.795Z,100751.91
2022-09-07T14:11:42.212Z,100749.47
2022-09-07T14:14:16.461Z,100739.13
2022-09-07T14:16:48.780Z,100745.31
2022-09-07T14:19:20.782Z,100753.22
2022-09-07T14:22:00.290Z,100753.63
2022-09-07T14:24:31.749Z,100755.72
2022-09-07T14:27:00.533Z,100739.69
2022-09-07T14:29:33.706Z,100739.69
2022-09-07T14:32:05.037Z,100737.47
2022-09-07T14:34:35.784Z,100747.03
2022-09-07T14:37:12.465Z,100736.91
2022-09-07T14:39:43.295Z,100736.84
2022-09-07T14:42:12.876Z,100723.84
2022-09-07T14:44:44.929Z,100727.16
2022-09-07T14:47:29.309Z,100729.28
2022-09-07T14:50:05.595Z,100735.88
2022-09-07T14:52:42.352Z,100731.34
2022-09-07T14:55:28.242Z,100730.72
2022-09-07T14:58:22.958Z,100729.09
2022-09-07T15:03:57.302Z,100724.75
2022-09-07T15:09:30.773Z,100728.06
2022-09-07T15:12:18.038Z,100723.91
2022-09-07T15:14:47.549Z,100716.56
2022-09-07T15:20:36.738Z,100714.91
2022-09-07T15:23:06.719Z,100705.16
2022-09-07T15:25:35.969Z,100715.75
2022-09-07T15:28:05.076Z,100714.72
2022-09-07T15:30:33.608Z,100715.59
2022-09-07T15:33:01.898Z,100714.66
2022-09-07T15:35:30.050Z,100721.38
2022-09-07T15:38:02.419Z,100714.34
2022-09-07T15:41:03.641Z,100719.59
2022-09-07T15:43:31.374Z,100712.78
2022-09-07T15:45:59.446Z,100708.41
2022-09-07T15:48:27.334Z,100706.91
2022-09-07T15:51:03.430Z,100701.22
2022-09-07T15:56:22.701Z,100692.34
2022-09-07T15:58:53.614Z,100693.78
2022-09-07T16:04:14.801Z,100691.13
2022-09-07T16:06:43.046Z,100685.78
2022-09-07T16:09:12.323Z,100682.72
2022-09-07T16:11:43.248Z,100684.22
2022-09-07T16:14:12.361Z,100684.03
2022-09-07T16:19:28.426Z,100681.31
2022-09-07T16:21:57.503Z,100675.94
2022-09-07T16:24:28.315Z,100674.31
2022-09-07T16:26:56.195Z,100679.09
2022-09-07T16:29:24.710Z,100681.34
2022-09-07T16:34:40.884Z,100670.19
2022-09-07T16:37:08.879Z,100659.22
2022-09-07T16:39:40.002Z,100664.19
2022-09-07T16:42:08.953Z,100647.19
2022-09-07T16:44:37.063Z,100654.41
2022-09-07T16:47:07.999Z,100644.06
2022-09-07T16:49:36.352Z,100650.28
2022-09-07T16:52:10.610Z,100646.53
2022-09-07T16:54:40.291Z,100649.44
2022-09-07T16:57:08.073Z,100645.31
2022-09-07T16:59:35.976Z,100649.22
2022-09-07T17:02:03.787Z,100658.72
2022-09-07T17:04:31.923Z,100664.69
2022-09-07T17:06:59.867Z,100667.56
2022-09-07T17:09:28.632Z,100669.84
2022-09-07T17:11:57.824Z,100674.78
2022-09-07T17:14:28.967Z,100668.78
2022-09-07T17:16:57.132Z,100661.75
2022-09-07T17:19:32.624Z,100663.38
2022-09-07T17:22:01.099Z,100664.81
2022-09-07T17:24:32.231Z,100672.03
2022-09-07T17:27:05.989Z,100683.53
2022-09-07T17:29:37.136Z,100711.25
2022-09-07T17:34:54.122Z,100689.88
2022-09-07T17:37:22.523Z,100676.66
2022-09-07T17:39:50.519Z,100664.81
2022-09-07T17:42:20.076Z,100667.59
2022-09-07T17:44:52.712Z,100661.47
2022-09-07T17:47:21.012Z,100665.66
2022-09-07T17:49:49.035Z,100658.16
2022-09-07T17:52:17.135Z,100665.81
2022-09-07T17:54:45.407Z,100658.34
2022-09-07T17:57:13.240Z,100649.56
2022-09-07T18:02:37.723Z,100672.66
2022-09-07T18:05:07.333Z,100666.59
2022-09-07T18:07:35.978Z,100665.50
2022-09-07T18:10:03.873Z,100663.13
2022-09-07T18:12:32.711Z,100673.41
2022-09-07T18:15:02.117Z,100669.00
2022-09-07T18:17:30.143Z,100680.81
2022-09-07T18:19:58.121Z,100686.53
2022-09-07T18:22:26.004Z,100693.00
2022-09-07T18:24:54.013Z,100690.97
2022-09-07T18:27:21.955Z,100692.09
2022-09-07T18:29:49.868Z,100701.28
2022-09-07T18:32:19.204Z,100707.72
2022-09-07T18:34:50.535Z,100709.44
2022-09-07T18:37:19.515Z,100709.53
2022-09-07T18:39:48.651Z,100706.78
2022-09-07T18:42:16.856Z,100715.25
2022-09-07T18:47:35.012Z,100725.34
2022-09-07T18:50:02.984Z,100719.59
2022-09-07T18:55:19.996Z,100719.41
2022-09-07T18:57:47.919Z,100715.38
2022-09-07T19:00:16.222Z,100717.66
2022-09-07T19:02:50.409Z,100715.19
2022-09-07T19:08:08.406Z,100711.66
2022-09-07T19:10:37.216Z,100707.81
2022-09-07T19:13:07.359Z,100704.25
2022-09-07T19:15:38.599Z,100712.06
2022-09-07T19:18:09.001Z,100710.56
2022-09-07T19:20:37.360Z,100708.72
2022-09-07T19:23:06.418Z,100705.97
2022-09-07T19:25:34.405Z,100708.19
2022-09-07T19:28:02.390Z,100702.28
2022-09-07T19:30:30.433Z,100703.44
2022-09-07T19:33:02.126Z,100699.69
2022-09-07T19:35:37.006Z,100703.38
2022-09-07T19:38:08.961Z,100702.09
2022-09-07T19:40:36.946Z,100700.22
2022-09-07T19:43:05.056Z,100701.44
2022-09-07T19:45:33.695Z,100709.53
2022-09-07T19:48:02.035Z,100709.53
2022-09-07T19:50:30.035Z,100711.88
2022-09-07T19:52:59.337Z,100704.25
2022-09-07T19:55:28.180Z,100700.13
2022-09-07T19:57:56.202Z,100697.44
2022-09-07T20:00:24.713Z,100696.97
2022-09-07T20:02:54.117Z,100699.66
2022-09-07T20:05:29.077Z,100692.56
2022-09-07T20:07:57.083Z,100693.41
2022-09-07T20:10:26.434Z,100686.13
2022-09-07T20:12:54.329Z,100686.41
2022-09-07T20:15:24.037Z,100677.66
2022-09-07T20:17:51.856Z,100676.59
2022-09-07T20:20:21.079Z,100674.03
2022-09-07T20:22:48.995Z,100666.66
2022-09-07T20:25:17.022Z,100657.16
2022-09-07T20:27:46.341Z,100655.06
2022-09-07T20:30:14.560Z,100651.16
2022-09-07T20:32:42.750Z,100632.59
2022-09-07T20:35:11.091Z,100641.88
2022-09-07T20:37:39.154Z,100642.34
2022-09-07T20:40:08.307Z,100643.25
2022-09-07T20:42:36.165Z,100641.78
2022-09-07T20:45:06.104Z,100642.88
2022-09-07T20:47:33.994Z,100643.97
2022-09-07T20:50:01.886Z,100648.00
2022-09-07T20:52:32.627Z,100648.00
2022-09-07T20:55:01.052Z,100636.53
2022-09-07T20:57:28.840Z,100634.69
2022-09-07T20:59:56.880Z,100630.72
2022-09-07T21:02:26.166Z,100626.69
2022-09-07T21:04:54.088Z,100628.75
2022-09-07T21:07:22.002Z,100628.28
2022-09-07T21:09:50.308Z,100638.91
2022-09-07T21:12:18.354Z,100638.63
2022-09-07T21:14:46.803Z,100636.47
2022-09-07T21:17:14.983Z,100635.81
2022-09-07T21:19:44.491Z,100637.66
2022-09-07T21:22:14.505Z,100630.56
2022-09-07T21:24:42.411Z,100627.84
2022-09-07T21:27:10.350Z,100630.09
2022-09-07T21:29:38.231Z,100628.13
2022-09-07T21:32:06.797Z,100625.00
2022-09-07T21:34:34.683Z,100621.13
2022-09-07T21:37:05.955Z,100615.38
2022-09-07T21:39:33.844Z,100617.81
2022-09-07T21:42:01.766Z,100618.22
2022-09-07T21:44:29.630Z,100620.38
2022-09-07T21:46:57.621Z,100617.38
2022-09-07T21:49:25.687Z,100620.19
2022-09-07T21:51:53.575Z,100627.22
2022-09-07T21:54:22.736Z,100617.75
2022-09-07T21:56:54.230Z,100622.94
2022-09-07T21:59:21.983Z,100619.13
2022-09-07T22:01:49.949Z,100621.00
2022-09-07T22:04:17.927Z,100626.63
2022-09-07T22:06:45.753Z,100628.97
2022-09-07T22:09:13.564Z,100629.16
2022-09-07T22:11:45.879Z,100630.72
2022-09-07T22:14:15.656Z,100628.16
2022-09-07T22:16:43.600Z,100626.69
2022-09-07T22:19:23.195Z,100627.63
2022-09-07T22:21:51.842Z,100631.66
2022-09-07T22:24:19.598Z,100631.22
2022-09-07T22:26:48.950Z,100631.69
2022-09-07T22:29:16.714Z,100628.03
2022-09-07T22:31:44.608Z,100631.41
2022-09-07T22:34:12.460Z,100629.00
2022-09-07T22:36:42.431Z,100623.03
2022-09-07T22:39:13.139Z,100631.25
2022-09-07T22:41:41.856Z,100631.94
2022-09-07T22:44:15.126Z,100632.09
2022-09-07T22:46:44.653Z,100631.94
2022-09-07T22:49:13.341Z,100633.91
2022-09-07T22:51:41.194Z,100628.41
2022-09-07T22:54:09.061Z,100625.25
2022-09-07T22:56:38.293Z,100616.13
2022-09-07T22:59:08.414Z,100619.00
2022-09-07T23:01:38.107Z,100607.50
2022-09-07T23:04:06.834Z,100605.84
2022-09-07T23:06:36.579Z,100604.19
2022-09-07T23:09:06.711Z,100605.53
2022-09-07T23:11:34.785Z,100602.88
2022-09-07T23:14:04.915Z,100595.03
2022-09-07T23:16:32.894Z,100597.22
2022-09-07T23:19:02.133Z,100590.59
2022-09-07T23:21:30.264Z,100582.88
2022-09-07T23:23:59.644Z,100588.03
2022-09-07T23:26:29.926Z,100585.56
2022-09-07T23:28:59.526Z,100587.56
2022-09-07T23:31:28.840Z,100578.94
2022-09-07T23:33:57.405Z,100580.56
2022-09-07T23:36:27.565Z,100587.72
2022-09-07T23:38:56.212Z,100586.06
2022-09-07T23:41:25.266Z,100581.91
2022-09-07T23:43:53.757Z,100576.41
2022-09-07T23:46:22.482Z,100578.91
2022-09-07T23:48:50.918Z,100570.25
2022-09-07T23:51:23.849Z,100566.78
2022-09-07T23:53:53.842Z,100565.94
2022-09-07T23:56:24.159Z,100561.28
2022-09-07T23:58:51.932Z,100556.44
